sensor_id;sensor_type;location;lat;lon;timestamp;P1;durP1;ratioP1;P2;durP2;ratioP2
49728;SDS011;66333;49.798;10.968;2023-03-01T00:02:18;10.23;;;7.00;;
49728;SDS011;66333;49.798;10.968;2023-03-01T00:04:46;9.50;;;6.13;;
49728;SDS011;66333;49.798;10.968;2023-03-01T00:07:13;10.60;;;6.77;;
49728;SDS011;66333;49.798;10.968;2023-03-01T00:09:39;10.20;;;6.60;;
49728;SDS011;66333;49.798;10.968;2023-03-01T00:12:06;9.90;;;6.33;;
49728;SDS011;66333;49.798;10.968;2023-03-01T00:14:32;9.00;;;6.17;;
49728;SDS011;66333;49.798;10.968;2023-03-01T00:16:59;10.40;;;6.17;;
49728;SDS011;66333;49.798;10.968;2023-03-01T00:19:25;9.30;;;5.90;;
49728;SDS011;66333;49.798;10.968;2023-03-01T00:21:53;10.63;;;6.03;;
49728;SDS011;66333;49.798;10.968;2023-03-01T00:24:19;10.07;;;6.27;;
49728;SDS011;66333;49.798;10.968;2023-03-01T00:26:46;11.47;;;6.70;;
49728;SDS011;66333;49.798;10.968;2023-03-01T00:29:12;9.67;;;6.50;;
49728;SDS011;66333;49.798;10.968;2023-03-01T00:31:38;10.37;;;6.57;;
49728;SDS011;66333;49.798;10.968;2023-03-01T00:34:05;10.93;;;6.67;;
49728;SDS011;66333;49.798;10.968;2023-03-01T00:36:32;11.57;;;7.10;;
49728;SDS011;66333;49.798;10.968;2023-03-01T00:39:02;9.27;;;6.43;;
49728;SDS011;66333;49.798;10.968;2023-03-01T00:41:30;9.80;;;6.43;;
49728;SDS011;66333;49.798;10.968;2023-03-01T00:43:56;9.53;;;6.30;;
49728;SDS011;66333;49.798;10.968;2023-03-01T00:46:24;10.23;;;6.23;;
49728;SDS011;66333;49.798;10.968;2023-03-01T00:48:52;10.03;;;6.73;;
49728;SDS011;66333;49.798;10.968;2023-03-01T00:51:20;9.87;;;6.30;;
49728;SDS011;66333;49.798;10.968;2023-03-01T00:53:50;9.97;;;6.40;;
49728;SDS011;66333;49.798;10.968;2023-03-01T00:56:18;9.30;;;6.23;;
49728;SDS011;66333;49.798;10.968;2023-03-01T00:58:45;9.50;;;6.27;;
49728;SDS011;66333;49.798;10.968;2023-03-01T01:01:13;9.90;;;6.27;;
49728;SDS011;66333;49.798;10.968;2023-03-01T01:03:43;10.13;;;6.43;;
49728;SDS011;66333;49.798;10.968;2023-03-01T01:06:14;10.50;;;7.13;;
49728;SDS011;66333;49.798;10.968;2023-03-01T01:08:42;9.57;;;6.33;;
49728;SDS011;66333;49.798;10.968;2023-03-01T01:11:08;10.53;;;6.27;;
49728;SDS011;66333;49.798;10.968;2023-03-01T01:13:37;9.60;;;6.00;;
49728;SDS011;66333;49.798;10.968;2023-03-01T01:16:04;10.03;;;6.67;;
49728;SDS011;66333;49.798;10.968;2023-03-01T01:18:31;9.47;;;5.87;;
49728;SDS011;66333;49.798;10.968;2023-03-01T01:21:02;9.17;;;6.07;;
49728;SDS011;66333;49.798;10.968;2023-03-01T01:23:29;9.67;;;6.27;;
49728;SDS011;66333;49.798;10.968;2023-03-01T01:25:56;9.43;;;6.17;;
49728;SDS011;66333;49.798;10.968;2023-03-01T01:28:22;9.30;;;6.30;;
49728;SDS011;66333;49.798;10.968;2023-03-01T01:30:50;10.27;;;6.60;;
49728;SDS011;66333;49.798;10.968;2023-03-01T01:33:16;9.10;;;5.93;;
49728;SDS011;66333;49.798;10.968;2023-03-01T01:35:44;9.33;;;6.20;;
49728;SDS011;66333;49.798;10.968;2023-03-01T01:38:11;9.57;;;6.27;;
49728;SDS011;66333;49.798;10.968;2023-03-01T01:40:42;9.30;;;6.13;;
49728;SDS011;66333;49.798;10.968;2023-03-01T01:43:11;8.90;;;6.10;;
49728;SDS011;66333;49.798;10.968;2023-03-01T01:45:43;9.40;;;6.13;;
49728;SDS011;66333;49.798;10.968;2023-03-01T01:48:12;10.87;;;6.13;;
49728;SDS011;66333;49.798;10.968;2023-03-01T01:50:42;9.60;;;6.47;;
49728;SDS011;66333;49.798;10.968;2023-03-01T01:53:10;10.60;;;6.47;;
49728;SDS011;66333;49.798;10.968;2023-03-01T01:55:40;10.13;;;6.23;;
49728;SDS011;66333;49.798;10.968;2023-03-01T01:58:09;9.20;;;6.40;;
49728;SDS011;66333;49.798;10.968;2023-03-01T02:00:39;9.43;;;6.57;;
49728;SDS011;66333;49.798;10.968;2023-03-01T02:03:07;8.97;;;6.13;;
49728;SDS011;66333;49.798;10.968;2023-03-01T02:05:38;10.20;;;6.00;;
49728;SDS011;66333;49.798;10.968;2023-03-01T02:08:11;10.17;;;6.70;;
49728;SDS011;66333;49.798;10.968;2023-03-01T02:10:38;10.83;;;6.30;;
49728;SDS011;66333;49.798;10.968;2023-03-01T02:13:06;9.33;;;6.13;;
49728;SDS011;66333;49.798;10.968;2023-03-01T02:15:33;9.23;;;6.07;;
49728;SDS011;66333;49.798;10.968;2023-03-01T02:18:01;9.13;;;5.73;;
49728;SDS011;66333;49.798;10.968;2023-03-01T02:20:31;10.00;;;6.53;;
49728;SDS011;66333;49.798;10.968;2023-03-01T02:23:02;10.37;;;6.70;;
49728;SDS011;66333;49.798;10.968;2023-03-01T02:25:33;8.77;;;5.70;;
49728;SDS011;66333;49.798;10.968;2023-03-01T02:28:06;8.48;;;5.88;;
49728;SDS011;66333;49.798;10.968;2023-03-01T02:30:39;9.00;;;6.20;;
49728;SDS011;66333;49.798;10.968;2023-03-01T02:33:27;10.30;;;6.57;;
49728;SDS011;66333;49.798;10.968;2023-03-01T02:35:52;9.43;;;6.00;;
49728;SDS011;66333;49.798;10.968;2023-03-01T02:38:20;10.13;;;7.13;;
49728;SDS011;66333;49.798;10.968;2023-03-01T02:40:48;8.80;;;5.70;;
49728;SDS011;66333;49.798;10.968;2023-03-01T02:43:16;10.00;;;6.47;;
49728;SDS011;66333;49.798;10.968;2023-03-01T02:45:49;9.87;;;6.57;;
49728;SDS011;66333;49.798;10.968;2023-03-01T02:48:16;9.93;;;6.23;;
49728;SDS011;66333;49.798;10.968;2023-03-01T02:50:51;9.70;;;6.40;;
49728;SDS011;66333;49.798;10.968;2023-03-01T02:53:31;9.07;;;6.00;;
49728;SDS011;66333;49.798;10.968;2023-03-01T02:56:04;9.73;;;6.50;;
49728;SDS011;66333;49.798;10.968;2023-03-01T02:58:30;9.40;;;6.37;;
49728;SDS011;66333;49.798;10.968;2023-03-01T03:00:58;9.27;;;5.90;;
49728;SDS011;66333;49.798;10.968;2023-03-01T03:03:25;9.93;;;6.40;;
49728;SDS011;66333;49.798;10.968;2023-03-01T03:05:52;9.70;;;5.90;;
49728;SDS011;66333;49.798;10.968;2023-03-01T03:08:19;8.80;;;5.87;;
49728;SDS011;66333;49.798;10.968;2023-03-01T03:10:48;9.60;;;5.80;;
49728;SDS011;66333;49.798;10.968;2023-03-01T03:13:15;10.10;;;6.10;;
49728;SDS011;66333;49.798;10.968;2023-03-01T03:15:42;9.87;;;6.10;;
49728;SDS011;66333;49.798;10.968;2023-03-01T03:18:11;10.23;;;6.47;;
49728;SDS011;66333;49.798;10.968;2023-03-01T03:20:38;10.27;;;6.23;;
49728;SDS011;66333;49.798;10.968;2023-03-01T03:23:06;9.33;;;6.17;;
49728;SDS011;66333;49.798;10.968;2023-03-01T03:25:33;9.60;;;6.33;;
49728;SDS011;66333;49.798;10.968;2023-03-01T03:28:02;10.00;;;6.07;;
49728;SDS011;66333;49.798;10.968;2023-03-01T03:30:34;9.50;;;5.97;;
49728;SDS011;66333;49.798;10.968;2023-03-01T03:33:04;8.90;;;5.90;;
49728;SDS011;66333;49.798;10.968;2023-03-01T03:35:34;10.53;;;6.30;;
49728;SDS011;66333;49.798;10.968;2023-03-01T03:38:05;9.43;;;6.13;;
49728;SDS011;66333;49.798;10.968;2023-03-01T03:40:41;9.93;;;5.93;;
49728;SDS011;66333;49.798;10.968;2023-03-01T03:43:10;10.10;;;6.10;;
49728;SDS011;66333;49.798;10.968;2023-03-01T03:45:37;9.50;;;6.20;;
49728;SDS011;66333;49.798;10.968;2023-03-01T03:48:05;11.37;;;6.90;;
49728;SDS011;66333;49.798;10.968;2023-03-01T03:50:33;10.60;;;6.23;;
49728;SDS011;66333;49.798;10.968;2023-03-01T03:53:00;9.97;;;6.57;;
49728;SDS011;66333;49.798;10.968;2023-03-01T03:55:27;10.23;;;6.70;;
49728;SDS011;66333;49.798;10.968;2023-03-01T03:57:56;10.50;;;6.63;;
49728;SDS011;66333;49.798;10.968;2023-03-01T04:00:27;9.73;;;6.30;;
49728;SDS011;66333;49.798;10.968;2023-03-01T04:02:54;9.37;;;6.40;;
49728;SDS011;66333;49.798;10.968;2023-03-01T04:05:21;9.63;;;6.17;;
49728;SDS011;66333;49.798;10.968;2023-03-01T04:07:49;11.03;;;6.60;;
49728;SDS011;66333;49.798;10.968;2023-03-01T04:10:26;8.73;;;5.83;;
49728;SDS011;66333;49.798;10.968;2023-03-01T04:12:53;10.03;;;6.23;;
49728;SDS011;66333;49.798;10.968;2023-03-01T04:15:21;10.30;;;6.40;;
49728;SDS011;66333;49.798;10.968;2023-03-01T04:17:49;11.27;;;6.47;;
49728;SDS011;66333;49.798;10.968;2023-03-01T04:20:18;9.37;;;5.93;;
49728;SDS011;66333;49.798;10.968;2023-03-01T04:22:51;9.90;;;6.40;;
49728;SDS011;66333;49.798;10.968;2023-03-01T04:25:18;9.67;;;6.00;;
49728;SDS011;66333;49.798;10.968;2023-03-01T04:27:45;10.30;;;6.20;;
49728;SDS011;66333;49.798;10.968;2023-03-01T04:30:11;9.10;;;6.00;;
49728;SDS011;66333;49.798;10.968;2023-03-01T04:32:38;9.47;;;6.43;;
49728;SDS011;66333;49.798;10.968;2023-03-01T04:35:05;9.97;;;5.93;;
49728;SDS011;66333;49.798;10.968;2023-03-01T04:37:31;9.40;;;6.00;;
49728;SDS011;66333;49.798;10.968;2023-03-01T04:39:59;9.83;;;6.50;;
49728;SDS011;66333;49.798;10.968;2023-03-01T04:42:25;9.63;;;6.00;;
49728;SDS011;66333;49.798;10.968;2023-03-01T04:44:52;10.10;;;6.40;;
49728;SDS011;66333;49.798;10.968;2023-03-01T04:47:18;9.77;;;6.53;;
49728;SDS011;66333;49.798;10.968;2023-03-01T04:49:45;10.00;;;6.20;;
49728;SDS011;66333;49.798;10.968;2023-03-01T04:52:11;10.77;;;6.20;;
49728;SDS011;66333;49.798;10.968;2023-03-01T04:54:38;9.13;;;5.97;;
49728;SDS011;66333;49.798;10.968;2023-03-01T04:57:05;10.13;;;6.40;;
49728;SDS011;66333;49.798;10.968;2023-03-01T04:59:32;10.27;;;6.97;;
49728;SDS011;66333;49.798;10.968;2023-03-01T05:01:58;11.33;;;6.90;;
49728;SDS011;66333;49.798;10.968;2023-03-01T05:04:25;9.60;;;6.60;;
49728;SDS011;66333;49.798;10.968;2023-03-01T05:06:52;11.07;;;6.80;;
49728;SDS011;66333;49.798;10.968;2023-03-01T05:09:18;10.30;;;6.27;;
49728;SDS011;66333;49.798;10.968;2023-03-01T05:11:45;10.97;;;6.27;;
49728;SDS011;66333;49.798;10.968;2023-03-01T05:14:13;10.17;;;6.23;;
49728;SDS011;66333;49.798;10.968;2023-03-01T05:16:40;11.73;;;6.93;;
49728;SDS011;66333;49.798;10.968;2023-03-01T05:19:06;10.23;;;6.67;;
49728;SDS011;66333;49.798;10.968;2023-03-01T05:21:40;11.80;;;6.70;;
49728;SDS011;66333;49.798;10.968;2023-03-01T05:24:21;10.83;;;6.37;;
49728;SDS011;66333;49.798;10.968;2023-03-01T05:26:47;10.30;;;6.83;;
49728;SDS011;66333;49.798;10.968;2023-03-01T05:29:15;9.67;;;6.37;;
49728;SDS011;66333;49.798;10.968;2023-03-01T05:31:41;10.13;;;6.80;;
49728;SDS011;66333;49.798;10.968;2023-03-01T05:34:08;9.40;;;6.73;;
49728;SDS011;66333;49.798;10.968;2023-03-01T05:36:37;9.67;;;6.50;;
49728;SDS011;66333;49.798;10.968;2023-03-01T05:39:04;9.83;;;6.10;;
49728;SDS011;66333;49.798;10.968;2023-03-01T05:41:30;10.50;;;7.13;;
49728;SDS011;66333;49.798;10.968;2023-03-01T05:43:57;10.23;;;6.87;;
49728;SDS011;66333;49.798;10.968;2023-03-01T05:46:24;10.60;;;6.23;;
49728;SDS011;66333;49.798;10.968;2023-03-01T05:48:51;10.73;;;6.67;;
49728;SDS011;66333;49.798;10.968;2023-03-01T05:51:17;9.63;;;6.60;;
49728;SDS011;66333;49.798;10.968;2023-03-01T05:53:44;11.33;;;6.53;;
49728;SDS011;66333;49.798;10.968;2023-03-01T05:56:10;10.60;;;6.50;;
49728;SDS011;66333;49.798;10.968;2023-03-01T05:58:36;9.37;;;6.23;;
49728;SDS011;66333;49.798;10.968;2023-03-01T06:01:04;10.70;;;6.17;;
49728;SDS011;66333;49.798;10.968;2023-03-01T06:03:31;9.87;;;6.57;;
49728;SDS011;66333;49.798;10.968;2023-03-01T06:05:58;9.50;;;6.43;;
49728;SDS011;66333;49.798;10.968;2023-03-01T06:08:24;10.67;;;7.00;;
49728;SDS011;66333;49.798;10.968;2023-03-01T06:10:52;9.70;;;5.87;;
49728;SDS011;66333;49.798;10.968;2023-03-01T06:13:18;10.40;;;6.50;;
49728;SDS011;66333;49.798;10.968;2023-03-01T06:15:45;11.77;;;6.70;;
49728;SDS011;66333;49.798;10.968;2023-03-01T06:18:11;9.90;;;6.37;;
49728;SDS011;66333;49.798;10.968;2023-03-01T06:20:39;10.93;;;6.93;;
49728;SDS011;66333;49.798;10.968;2023-03-01T06:23:06;10.13;;;6.07;;
49728;SDS011;66333;49.798;10.968;2023-03-01T06:25:32;12.77;;;6.90;;
49728;SDS011;66333;49.798;10.968;2023-03-01T06:27:59;14.67;;;9.33;;
49728;SDS011;66333;49.798;10.968;2023-03-01T06:30:25;17.20;;;9.80;;
49728;SDS011;66333;49.798;10.968;2023-03-01T06:32:52;19.23;;;11.40;;
49728;SDS011;66333;49.798;10.968;2023-03-01T06:35:26;18.70;;;11.83;;
49728;SDS011;66333;49.798;10.968;2023-03-01T06:37:56;19.10;;;12.10;;
49728;SDS011;66333;49.798;10.968;2023-03-01T06:40:24;16.43;;;10.50;;
49728;SDS011;66333;49.798;10.968;2023-03-01T06:42:51;17.37;;;10.77;;
49728;SDS011;66333;49.798;10.968;2023-03-01T06:45:17;15.77;;;10.43;;
49728;SDS011;66333;49.798;10.968;2023-03-01T06:47:45;19.77;;;10.73;;
49728;SDS011;66333;49.798;10.968;2023-03-01T06:50:12;16.47;;;9.87;;
49728;SDS011;66333;49.798;10.968;2023-03-01T06:52:39;15.37;;;10.23;;
49728;SDS011;66333;49.798;10.968;2023-03-01T06:55:08;17.30;;;10.67;;
49728;SDS011;66333;49.798;10.968;2023-03-01T06:57:34;15.30;;;9.77;;
49728;SDS011;66333;49.798;10.968;2023-03-01T07:00:01;18.10;;;11.40;;
49728;SDS011;66333;49.798;10.968;2023-03-01T07:02:27;18.73;;;11.00;;
49728;SDS011;66333;49.798;10.968;2023-03-01T07:04:54;15.60;;;9.47;;
49728;SDS011;66333;49.798;10.968;2023-03-01T07:07:20;16.90;;;9.77;;
49728;SDS011;66333;49.798;10.968;2023-03-01T07:09:48;15.00;;;9.60;;
49728;SDS011;66333;49.798;10.968;2023-03-01T07:12:16;14.67;;;10.10;;
49728;SDS011;66333;49.798;10.968;2023-03-01T07:14:43;14.07;;;9.80;;
49728;SDS011;66333;49.798;10.968;2023-03-01T07:17:10;16.23;;;9.83;;
49728;SDS011;66333;49.798;10.968;2023-03-01T07:19:36;15.27;;;9.13;;
49728;SDS011;66333;49.798;10.968;2023-03-01T07:22:03;14.27;;;9.17;;
49728;SDS011;66333;49.798;10.968;2023-03-01T07:24:32;14.80;;;9.50;;
49728;SDS011;66333;49.798;10.968;2023-03-01T07:26:59;16.63;;;9.50;;
49728;SDS011;66333;49.798;10.968;2023-03-01T07:29:26;14.50;;;9.00;;
49728;SDS011;66333;49.798;10.968;2023-03-01T07:31:54;15.10;;;8.67;;
49728;SDS011;66333;49.798;10.968;2023-03-01T07:34:20;17.40;;;9.70;;
49728;SDS011;66333;49.798;10.968;2023-03-01T07:36:46;13.13;;;8.80;;
49728;SDS011;66333;49.798;10.968;2023-03-01T07:39:13;14.50;;;8.70;;
49728;SDS011;66333;49.798;10.968;2023-03-01T07:41:39;14.83;;;9.10;;
49728;SDS011;66333;49.798;10.968;2023-03-01T07:44:06;15.20;;;8.50;;
49728;SDS011;66333;49.798;10.968;2023-03-01T07:46:33;16.57;;;10.13;;
49728;SDS011;66333;49.798;10.968;2023-03-01T07:49:00;13.93;;;9.37;;
49728;SDS011;66333;49.798;10.968;2023-03-01T07:51:26;14.63;;;9.73;;
49728;SDS011;66333;49.798;10.968;2023-03-01T07:53:53;14.60;;;9.00;;
49728;SDS011;66333;49.798;10.968;2023-03-01T07:56:19;15.23;;;8.97;;
49728;SDS011;66333;49.798;10.968;2023-03-01T07:58:47;14.13;;;8.80;;
49728;SDS011;66333;49.798;10.968;2023-03-01T08:01:14;14.20;;;9.23;;
49728;SDS011;66333;49.798;10.968;2023-03-01T08:03:43;14.13;;;8.77;;
49728;SDS011;66333;49.798;10.968;2023-03-01T08:06:10;14.83;;;8.50;;
49728;SDS011;66333;49.798;10.968;2023-03-01T08:08:38;13.43;;;8.40;;
49728;SDS011;66333;49.798;10.968;2023-03-01T08:11:05;14.13;;;9.03;;
49728;SDS011;66333;49.798;10.968;2023-03-01T08:13:32;13.93;;;8.50;;
49728;SDS011;66333;49.798;10.968;2023-03-01T08:16:02;13.13;;;8.17;;
49728;SDS011;66333;49.798;10.968;2023-03-01T08:18:29;13.67;;;9.33;;
49728;SDS011;66333;49.798;10.968;2023-03-01T08:21:00;12.50;;;8.83;;
49728;SDS011;66333;49.798;10.968;2023-03-01T08:23:27;13.90;;;8.53;;
49728;SDS011;66333;49.798;10.968;2023-03-01T08:25:54;13.00;;;8.20;;
49728;SDS011;66333;49.798;10.968;2023-03-01T08:28:21;12.83;;;8.87;;
49728;SDS011;66333;49.798;10.968;2023-03-01T08:30:47;13.27;;;8.20;;
49728;SDS011;66333;49.798;10.968;2023-03-01T08:33:14;14.83;;;8.47;;
49728;SDS011;66333;49.798;10.968;2023-03-01T08:35:40;12.87;;;8.33;;
49728;SDS011;66333;49.798;10.968;2023-03-01T08:38:08;13.17;;;8.27;;
49728;SDS011;66333;49.798;10.968;2023-03-01T08:40:34;13.87;;;8.93;;
49728;SDS011;66333;49.798;10.968;2023-03-01T08:43:01;12.90;;;8.10;;
49728;SDS011;66333;49.798;10.968;2023-03-01T08:45:27;13.07;;;8.30;;
49728;SDS011;66333;49.798;10.968;2023-03-01T08:47:54;13.63;;;8.57;;
49728;SDS011;66333;49.798;10.968;2023-03-01T08:50:20;12.77;;;8.40;;
49728;SDS011;66333;49.798;10.968;2023-03-01T08:52:47;14.57;;;8.27;;
49728;SDS011;66333;49.798;10.968;2023-03-01T08:55:15;13.87;;;8.47;;
49728;SDS011;66333;49.798;10.968;2023-03-01T08:57:42;13.73;;;8.50;;
49728;SDS011;66333;49.798;10.968;2023-03-01T09:00:09;11.80;;;7.57;;
49728;SDS011;66333;49.798;10.968;2023-03-01T09:02:39;13.43;;;8.80;;
49728;SDS011;66333;49.798;10.968;2023-03-01T09:05:06;16.60;;;9.07;;
49728;SDS011;66333;49.798;10.968;2023-03-01T09:07:33;14.17;;;9.00;;
49728;SDS011;66333;49.798;10.968;2023-03-01T09:09:59;13.13;;;8.13;;
49728;SDS011;66333;49.798;10.968;2023-03-01T09:12:27;13.03;;;7.87;;
49728;SDS011;66333;49.798;10.968;2023-03-01T09:14:54;12.37;;;7.90;;
49728;SDS011;66333;49.798;10.968;2023-03-01T09:17:20;13.53;;;8.23;;
49728;SDS011;66333;49.798;10.968;2023-03-01T09:19:47;12.57;;;7.67;;
49728;SDS011;66333;49.798;10.968;2023-03-01T09:22:14;13.87;;;8.57;;
49728;SDS011;66333;49.798;10.968;2023-03-01T09:24:40;12.63;;;7.97;;
49728;SDS011;66333;49.798;10.968;2023-03-01T09:27:07;12.40;;;8.13;;
49728;SDS011;66333;49.798;10.968;2023-03-01T09:29:35;13.07;;;8.57;;
49728;SDS011;66333;49.798;10.968;2023-03-01T09:32:01;13.30;;;7.97;;
49728;SDS011;66333;49.798;10.968;2023-03-01T09:34:28;13.33;;;7.90;;
49728;SDS011;66333;49.798;10.968;2023-03-01T09:36:54;11.90;;;7.97;;
49728;SDS011;66333;49.798;10.968;2023-03-01T09:39:20;13.93;;;8.07;;
49728;SDS011;66333;49.798;10.968;2023-03-01T09:41:49;13.77;;;8.00;;
49728;SDS011;66333;49.798;10.968;2023-03-01T09:44:23;12.53;;;8.37;;
49728;SDS011;66333;49.798;10.968;2023-03-01T09:46:57;12.80;;;8.10;;
49728;SDS011;66333;49.798;10.968;2023-03-01T09:49:25;12.87;;;7.77;;
49728;SDS011;66333;49.798;10.968;2023-03-01T09:51:54;12.13;;;8.03;;
49728;SDS011;66333;49.798;10.968;2023-03-01T09:54:23;12.83;;;8.33;;
49728;SDS011;66333;49.798;10.968;2023-03-01T09:56:53;13.27;;;8.33;;
49728;SDS011;66333;49.798;10.968;2023-03-01T09:59:28;15.63;;;8.47;;
49728;SDS011;66333;49.798;10.968;2023-03-01T10:02:14;14.23;;;8.60;;
49728;SDS011;66333;49.798;10.968;2023-03-01T10:04:50;12.20;;;7.73;;
49728;SDS011;66333;49.798;10.968;2023-03-01T10:07:21;12.37;;;7.63;;
49728;SDS011;66333;49.798;10.968;2023-03-01T10:09:55;13.97;;;7.97;;
49728;SDS011;66333;49.798;10.968;2023-03-01T10:12:22;12.57;;;7.80;;
49728;SDS011;66333;49.798;10.968;2023-03-01T10:14:53;13.87;;;8.20;;
49728;SDS011;66333;49.798;10.968;2023-03-01T10:17:30;12.67;;;7.67;;
49728;SDS011;66333;49.798;10.968;2023-03-01T10:20:10;12.38;;;7.85;;
49728;SDS011;66333;49.798;10.968;2023-03-01T10:22:46;13.50;;;8.15;;
49728;SDS011;66333;49.798;10.968;2023-03-01T10:25:15;12.87;;;7.90;;
49728;SDS011;66333;49.798;10.968;2023-03-01T10:27:48;13.00;;;8.13;;
49728;SDS011;66333;49.798;10.968;2023-03-01T10:30:19;13.90;;;8.63;;
49728;SDS011;66333;49.798;10.968;2023-03-01T10:32:49;14.13;;;8.10;;
49728;SDS011;66333;49.798;10.968;2023-03-01T10:35:19;12.50;;;7.87;;
49728;SDS011;66333;49.798;10.968;2023-03-01T10:37:58;14.23;;;8.33;;
49728;SDS011;66333;49.798;10.968;2023-03-01T10:40:28;13.57;;;8.10;;
49728;SDS011;66333;49.798;10.968;2023-03-01T10:42:56;14.80;;;8.30;;
49728;SDS011;66333;49.798;10.968;2023-03-01T10:45:29;13.63;;;8.27;;
49728;SDS011;66333;49.798;10.968;2023-03-01T10:48:10;13.38;;;8.38;;
49728;SDS011;66333;49.798;10.968;2023-03-01T10:50:39;13.03;;;8.37;;
49728;SDS011;66333;49.798;10.968;2023-03-01T10:53:16;11.97;;;7.27;;
49728;SDS011;66333;49.798;10.968;2023-03-01T10:55:48;11.67;;;7.97;;
49728;SDS011;66333;49.798;10.968;2023-03-01T11:00:50;12.83;;;8.00;;
49728;SDS011;66333;49.798;10.968;2023-03-01T11:03:20;12.43;;;7.80;;
49728;SDS011;66333;49.798;10.968;2023-03-01T11:05:56;11.00;;;7.50;;
49728;SDS011;66333;49.798;10.968;2023-03-01T11:08:35;11.93;;;8.20;;
49728;SDS011;66333;49.798;10.968;2023-03-01T11:11:13;11.43;;;7.80;;
49728;SDS011;66333;49.798;10.968;2023-03-01T11:13:48;12.57;;;7.83;;
49728;SDS011;66333;49.798;10.968;2023-03-01T11:16:22;12.63;;;8.00;;
49728;SDS011;66333;49.798;10.968;2023-03-01T11:19:00;11.27;;;7.37;;
49728;SDS011;66333;49.798;10.968;2023-03-01T11:21:40;12.67;;;7.47;;
49728;SDS011;66333;49.798;10.968;2023-03-01T11:24:11;12.17;;;7.43;;
49728;SDS011;66333;49.798;10.968;2023-03-01T11:26:40;13.53;;;7.70;;
49728;SDS011;66333;49.798;10.968;2023-03-01T11:29:12;12.17;;;7.67;;
49728;SDS011;66333;49.798;10.968;2023-03-01T11:31:47;13.27;;;7.77;;
49728;SDS011;66333;49.798;10.968;2023-03-01T11:34:17;12.70;;;8.33;;
49728;SDS011;66333;49.798;10.968;2023-03-01T11:36:51;11.70;;;7.07;;
49728;SDS011;66333;49.798;10.968;2023-03-01T11:39:31;10.77;;;6.93;;
49728;SDS011;66333;49.798;10.968;2023-03-01T11:42:05;11.47;;;7.53;;
49728;SDS011;66333;49.798;10.968;2023-03-01T11:44:37;12.80;;;8.15;;
49728;SDS011;66333;49.798;10.968;2023-03-01T11:47:13;11.87;;;7.60;;
49728;SDS011;66333;49.798;10.968;2023-03-01T11:49:54;9.87;;;7.23;;
49728;SDS011;66333;49.798;10.968;2023-03-01T11:52:35;12.43;;;7.30;;
49728;SDS011;66333;49.798;10.968;2023-03-01T11:55:21;14.27;;;8.23;;
49728;SDS011;66333;49.798;10.968;2023-03-01T11:58:03;13.20;;;7.77;;
49728;SDS011;66333;49.798;10.968;2023-03-01T12:00:48;12.70;;;7.80;;
49728;SDS011;66333;49.798;10.968;2023-03-01T12:03:28;11.10;;;7.27;;
49728;SDS011;66333;49.798;10.968;2023-03-01T12:06:12;12.27;;;7.77;;
49728;SDS011;66333;49.798;10.968;2023-03-01T12:08:53;12.05;;;7.68;;
49728;SDS011;66333;49.798;10.968;2023-03-01T12:11:29;11.43;;;7.77;;
49728;SDS011;66333;49.798;10.968;2023-03-01T12:14:19;12.23;;;7.33;;
49728;SDS011;66333;49.798;10.968;2023-03-01T12:17:06;10.70;;;7.57;;
49728;SDS011;66333;49.798;10.968;2023-03-01T12:19:50;13.40;;;7.83;;
49728;SDS011;66333;49.798;10.968;2023-03-01T12:22:34;12.50;;;7.27;;
49728;SDS011;66333;49.798;10.968;2023-03-01T12:25:16;11.73;;;7.20;;
49728;SDS011;66333;49.798;10.968;2023-03-01T12:27:51;12.23;;;7.73;;
49728;SDS011;66333;49.798;10.968;2023-03-01T12:30:31;11.10;;;7.40;;
49728;SDS011;66333;49.798;10.968;2023-03-01T12:33:15;13.07;;;8.30;;
49728;SDS011;66333;49.798;10.968;2023-03-01T12:35:51;11.10;;;7.30;;
49728;SDS011;66333;49.798;10.968;2023-03-01T12:38:33;12.83;;;7.50;;
49728;SDS011;66333;49.798;10.968;2023-03-01T12:44:20;11.07;;;7.70;;
49728;SDS011;66333;49.798;10.968;2023-03-01T12:47:00;11.60;;;7.47;;
49728;SDS011;66333;49.798;10.968;2023-03-01T12:49:37;13.27;;;7.73;;
49728;SDS011;66333;49.798;10.968;2023-03-01T12:52:10;11.47;;;7.60;;
49728;SDS011;66333;49.798;10.968;2023-03-01T12:54:40;14.43;;;8.03;;
49728;SDS011;66333;49.798;10.968;2023-03-01T12:57:09;12.77;;;7.67;;
49728;SDS011;66333;49.798;10.968;2023-03-01T12:59:43;11.83;;;7.27;;
49728;SDS011;66333;49.798;10.968;2023-03-01T13:02:19;12.17;;;7.30;;
49728;SDS011;66333;49.798;10.968;2023-03-01T13:04:53;13.50;;;8.33;;
49728;SDS011;66333;49.798;10.968;2023-03-01T13:07:29;12.13;;;7.70;;
49728;SDS011;66333;49.798;10.968;2023-03-01T13:10:15;12.87;;;7.90;;
49728;SDS011;66333;49.798;10.968;2023-03-01T13:12:52;13.40;;;8.03;;
49728;SDS011;66333;49.798;10.968;2023-03-01T13:15:29;10.60;;;7.30;;
49728;SDS011;66333;49.798;10.968;2023-03-01T13:17:59;13.57;;;8.00;;
49728;SDS011;66333;49.798;10.968;2023-03-01T13:20:29;11.27;;;8.07;;
49728;SDS011;66333;49.798;10.968;2023-03-01T13:23:07;11.13;;;7.53;;
49728;SDS011;66333;49.798;10.968;2023-03-01T13:25:41;11.57;;;6.97;;
49728;SDS011;66333;49.798;10.968;2023-03-01T13:28:38;13.60;;;7.65;;
49728;SDS011;66333;49.798;10.968;2023-03-01T13:31:07;11.70;;;7.50;;
49728;SDS011;66333;49.798;10.968;2023-03-01T13:33:39;11.47;;;7.57;;
49728;SDS011;66333;49.798;10.968;2023-03-01T13:36:07;12.50;;;7.83;;
49728;SDS011;66333;49.798;10.968;2023-03-01T13:38:36;12.37;;;7.67;;
49728;SDS011;66333;49.798;10.968;2023-03-01T13:41:07;13.60;;;8.37;;
49728;SDS011;66333;49.798;10.968;2023-03-01T13:43:34;13.57;;;8.00;;
49728;SDS011;66333;49.798;10.968;2023-03-01T13:46:07;13.23;;;8.00;;
49728;SDS011;66333;49.798;10.968;2023-03-01T13:48:36;12.50;;;8.03;;
49728;SDS011;66333;49.798;10.968;2023-03-01T13:51:04;12.27;;;8.13;;
49728;SDS011;66333;49.798;10.968;2023-03-01T13:53:35;11.97;;;7.53;;
49728;SDS011;66333;49.798;10.968;2023-03-01T13:56:07;12.43;;;7.57;;
49728;SDS011;66333;49.798;10.968;2023-03-01T13:58:44;12.00;;;8.02;;
49728;SDS011;66333;49.798;10.968;2023-03-01T14:01:20;12.33;;;7.60;;
49728;SDS011;66333;49.798;10.968;2023-03-01T14:03:49;13.90;;;8.43;;
49728;SDS011;66333;49.798;10.968;2023-03-01T14:06:16;11.60;;;7.87;;
49728;SDS011;66333;49.798;10.968;2023-03-01T14:08:46;12.73;;;7.90;;
49728;SDS011;66333;49.798;10.968;2023-03-01T14:11:29;13.97;;;8.63;;
49728;SDS011;66333;49.798;10.968;2023-03-01T14:14:24;12.27;;;7.57;;
49728;SDS011;66333;49.798;10.968;2023-03-01T14:17:07;13.67;;;8.03;;
49728;SDS011;66333;49.798;10.968;2023-03-01T14:19:48;11.05;;;7.45;;
49728;SDS011;66333;49.798;10.968;2023-03-01T14:22:22;11.90;;;7.60;;
49728;SDS011;66333;49.798;10.968;2023-03-01T14:24:51;12.33;;;7.53;;
49728;SDS011;66333;49.798;10.968;2023-03-01T14:27:22;12.57;;;8.00;;
49728;SDS011;66333;49.798;10.968;2023-03-01T14:29:55;13.10;;;7.90;;
49728;SDS011;66333;49.798;10.968;2023-03-01T14:32:24;12.87;;;8.27;;
49728;SDS011;66333;49.798;10.968;2023-03-01T14:34:52;12.80;;;7.97;;
49728;SDS011;66333;49.798;10.968;2023-03-01T14:37:19;12.80;;;8.00;;
49728;SDS011;66333;49.798;10.968;2023-03-01T14:39:48;12.67;;;7.97;;
49728;SDS011;66333;49.798;10.968;2023-03-01T14:42:16;13.43;;;8.03;;
49728;SDS011;66333;49.798;10.968;2023-03-01T14:44:45;11.80;;;7.77;;
49728;SDS011;66333;49.798;10.968;2023-03-01T14:47:14;11.67;;;7.80;;